Weather at Mykonos Island National Airport

Public forecast

Using degrees Celsius for public forecast. Weather courtesy of forecast.io.

Current aviation weather report (METAR) for Mykonos Island National Airport

2024/06/22 07:20 (retrieved 15 minutes ago)

LGMK 220720Z 36022KT CAVOK 25/16 Q1007

Closest aviation forecast (TAF) to Mykonos Island National Airport

Closest forecast is Santorini Airport, 62.5 nm (115.8 km) S.

2024/06/22 06:12 (retrieved 1 hour ago)

TAF LGSR 220500Z 2206/2306 32012KT CAVOK